Time;durP1;ratioP1;P1;durP2;ratioP2;P2;SDS_P1;SDS_P2;PMS_P1;PMS_P2;Temp;Humidity;BMP_temperature;BMP_pressure;BME280_temperature;BME280_humidity;BME280_pressure;Samples;Min_cycle;Max_cycle;Signal;HPM_P1;HPM_P2
2023/05/13 00:00:53;;;;;;;12.37;7.80;;;;;;;;;;5014099;28;20093;-70
2023/05/13 00:03:18;;;;;;;14.40;8.00;;;;;;;;;;5013117;28;20060;-70
2023/05/13 00:05:44;;;;;;;13.63;8.50;;;;;;;;;;5014768;28;20022;-70
2023/05/13 00:08:10;;;;;;;11.67;7.90;;;;;;;;;;5012536;28;20018;-70
2023/05/13 00:10:36;;;;;;;14.90;9.17;;;;;;;;;;5014846;28;20030;-70
2023/05/13 00:13:01;;;;;;;12.73;8.30;;;;;;;;;;5013122;28;20049;-70
2023/05/13 00:15:26;;;;;;;15.30;7.90;;;;;;;;;;5012669;28;20371;-70
2023/05/13 00:17:52;;;;;;;12.83;8.17;;;;;;;;;;5013977;28;20022;-70
2023/05/13 00:20:17;;;;;;;14.67;8.17;;;;;;;;;;5013283;28;20056;-70
2023/05/13 00:22:43;;;;;;;14.57;8.70;;;;;;;;;;4996131;28;20018;-70
2023/05/13 00:25:08;;;;;;;13.70;8.90;;;;;;;;;;5014385;28;20037;-70
2023/05/13 00:27:34;;;;;;;15.37;9.37;;;;;;;;;;5012493;28;20044;-70
2023/05/13 00:29:59;;;;;;;12.20;9.03;;;;;;;;;;5014017;28;20021;-70
2023/05/13 00:32:24;;;;;;;12.97;8.50;;;;;;;;;;5012995;28;20071;-70
2023/05/13 00:34:50;;;;;;;11.43;8.73;;;;;;;;;;5012477;28;20106;-70
2023/05/13 00:37:15;;;;;;;14.90;9.17;;;;;;;;;;5013968;28;20135;-70
2023/05/13 00:39:41;;;;;;;16.43;9.40;;;;;;;;;;5013338;28;20025;-70
2023/05/13 00:42:06;;;;;;;13.00;9.30;;;;;;;;;;5012591;28;20026;-70
2023/05/13 00:44:32;;;;;;;17.20;10.30;;;;;;;;;;5014128;28;20390;-70
2023/05/13 00:46:58;;;;;;;15.37;10.43;;;;;;;;;;5012743;28;20025;-70
2023/05/13 00:49:23;;;;;;;16.83;10.17;;;;;;;;;;5007324;28;20549;-70
2023/05/13 00:51:50;;;;;;;13.60;10.00;;;;;;;;;;5008803;28;20370;-70
2023/05/13 00:54:15;;;;;;;22.33;9.80;;;;;;;;;;5013918;28;20048;-70
2023/05/13 00:56:40;;;;;;;14.40;9.93;;;;;;;;;;5011181;28;20124;-70
2023/05/13 00:59:05;;;;;;;18.50;11.60;;;;;;;;;;5010850;28;20018;-70
2023/05/13 01:04:32;;;;;;;16.87;10.80;;;;;;;;;;5050347;28;20057;-57
2023/05/13 01:07:06;;;;;;;16.10;11.30;;;;;;;;;;5050391;28;20543;-57
2023/05/13 01:09:53;;;;;;;15.20;10.70;;;;;;;;;;5052865;28;20020;-57
2023/05/13 01:12:20;;;;;;;15.10;10.50;;;;;;;;;;4968676;28;20089;-57
2023/05/13 01:15:04;;;;;;;16.47;10.50;;;;;;;;;;4971714;28;20093;-57
2023/05/13 01:17:41;;;;;;;17.10;10.93;;;;;;;;;;4971968;28;20031;-57
2023/05/13 01:20:07;;;;;;;17.63;10.67;;;;;;;;;;4971941;28;20066;-56
2023/05/13 01:22:32;;;;;;;15.80;10.87;;;;;;;;;;4972001;28;20065;-56
2023/05/13 01:24:57;;;;;;;16.03;10.03;;;;;;;;;;4957077;28;20031;-56
2023/05/13 01:27:23;;;;;;;16.60;11.60;;;;;;;;;;4974799;28;20150;-56
2023/05/13 01:29:49;;;;;;;15.50;11.47;;;;;;;;;;4973642;28;20471;-56
2023/05/13 01:32:14;;;;;;;15.90;10.53;;;;;;;;;;4972978;28;20479;-56
2023/05/13 01:34:40;;;;;;;18.87;11.23;;;;;;;;;;4970996;28;20066;-56
2023/05/13 01:37:06;;;;;;;16.57;11.27;;;;;;;;;;4973439;28;20039;-56
2023/05/13 01:39:31;;;;;;;15.53;10.90;;;;;;;;;;4969841;28;20586;-56
2023/05/13 01:41:57;;;;;;;18.37;11.60;;;;;;;;;;4972246;28;20062;-56
2023/05/13 01:44:22;;;;;;;16.47;11.80;;;;;;;;;;4981256;28;20040;-56
2023/05/13 01:46:49;;;;;;;19.50;12.83;;;;;;;;;;4977478;28;20080;-56
2023/05/13 01:49:14;;;;;;;16.60;11.97;;;;;;;;;;5061918;28;20082;-56
2023/05/13 01:51:40;;;;;;;21.10;12.00;;;;;;;;;;5051809;28;20021;-56
2023/05/13 01:54:05;;;;;;;16.63;11.40;;;;;;;;;;5052587;28;20033;-56
2023/05/13 01:56:30;;;;;;;17.63;12.77;;;;;;;;;;5050419;28;20059;-56
2023/05/13 01:58:56;;;;;;;20.80;13.20;;;;;;;;;;5052197;28;20029;-56
2023/05/13 02:01:21;;;;;;;17.57;12.07;;;;;;;;;;5051056;28;20029;-56
2023/05/13 02:03:46;;;;;;;43.83;13.83;;;;;;;;;;5052615;28;20527;-56
2023/05/13 02:06:12;;;;;;;22.80;11.80;;;;;;;;;;5052536;28;20124;-56
2023/05/13 02:08:37;;;;;;;18.17;11.90;;;;;;;;;;5053119;28;20526;-56
2023/05/13 02:11:02;;;;;;;18.43;11.67;;;;;;;;;;5052172;28;20024;-57
2023/05/13 02:13:28;;;;;;;24.93;12.40;;;;;;;;;;5052474;28;20025;-56
2023/05/13 02:15:53;;;;;;;19.10;12.97;;;;;;;;;;5052158;28;20025;-56
2023/05/13 02:18:19;;;;;;;17.53;12.77;;;;;;;;;;5052797;28;20487;-56
2023/05/13 02:20:44;;;;;;;17.87;12.97;;;;;;;;;;5051489;28;20032;-56
2023/05/13 02:23:10;;;;;;;16.97;12.53;;;;;;;;;;5053097;28;20029;-56
2023/05/13 02:25:35;;;;;;;19.20;12.53;;;;;;;;;;5051431;28;20037;-56
2023/05/13 02:28:00;;;;;;;19.13;12.57;;;;;;;;;;5052191;28;20772;-56
2023/05/13 02:30:26;;;;;;;19.97;13.00;;;;;;;;;;5048851;28;20497;-56
2023/05/13 02:32:52;;;;;;;19.30;13.20;;;;;;;;;;5050452;28;20021;-56
2023/05/13 02:35:17;;;;;;;19.10;13.23;;;;;;;;;;5051637;28;20020;-56
2023/05/13 02:37:43;;;;;;;25.40;13.40;;;;;;;;;;5052899;28;20491;-56
2023/05/13 02:40:08;;;;;;;17.10;12.97;;;;;;;;;;5049579;28;20025;-57
2023/05/13 02:42:34;;;;;;;20.70;13.00;;;;;;;;;;5051852;28;20386;-56
2023/05/13 02:44:59;;;;;;;19.63;14.53;;;;;;;;;;5050913;28;20029;-56
2023/05/13 02:47:24;;;;;;;23.33;14.03;;;;;;;;;;5050123;28;20051;-56
2023/05/13 02:49:50;;;;;;;18.73;13.97;;;;;;;;;;5050109;28;20503;-56
2023/05/13 02:52:15;;;;;;;20.07;12.93;;;;;;;;;;5051668;28;20036;-56
2023/05/13 02:54:40;;;;;;;18.63;13.80;;;;;;;;;;5047232;28;20353;-57
2023/05/13 02:57:05;;;;;;;25.57;15.00;;;;;;;;;;5051823;28;20415;-59
2023/05/13 02:59:31;;;;;;;20.33;14.83;;;;;;;;;;5049760;28;20028;-57
2023/05/13 03:01:56;;;;;;;17.53;13.67;;;;;;;;;;5050434;28;20051;-59
2023/05/13 03:04:21;;;;;;;23.17;15.00;;;;;;;;;;5050544;28;20031;-59
2023/05/13 03:06:46;;;;;;;21.70;15.60;;;;;;;;;;5052614;28;20065;-56
2023/05/13 03:09:12;;;;;;;22.10;14.93;;;;;;;;;;5052076;28;20025;-56
2023/05/13 03:11:37;;;;;;;24.50;15.43;;;;;;;;;;5052722;28;20491;-57
2023/05/13 03:14:02;;;;;;;22.43;14.60;;;;;;;;;;5050992;28;20104;-56
2023/05/13 03:16:28;;;;;;;22.30;15.17;;;;;;;;;;5050612;28;20029;-56
2023/05/13 03:18:53;;;;;;;24.63;15.10;;;;;;;;;;5051890;28;20488;-56
2023/05/13 03:21:18;;;;;;;20.93;14.97;;;;;;;;;;5051591;28;20029;-56
2023/05/13 03:23:43;;;;;;;20.17;15.07;;;;;;;;;;5051461;28;20135;-56
2023/05/13 03:26:09;;;;;;;22.90;16.30;;;;;;;;;;5051562;28;20108;-56
2023/05/13 03:28:34;;;;;;;22.80;16.17;;;;;;;;;;5050511;28;20025;-59
2023/05/13 03:31:00;;;;;;;22.53;15.53;;;;;;;;;;5051728;28;20123;-56
2023/05/13 03:33:25;;;;;;;23.37;15.93;;;;;;;;;;5052091;28;20025;-56
2023/05/13 03:35:50;;;;;;;22.43;16.10;;;;;;;;;;5050606;28;21731;-56
2023/05/13 03:38:15;;;;;;;21.83;15.53;;;;;;;;;;5049016;28;20150;-57
2023/05/13 03:40:41;;;;;;;23.50;15.97;;;;;;;;;;5048952;28;20366;-57
2023/05/13 03:43:06;;;;;;;20.50;15.60;;;;;;;;;;5051300;28;20032;-57
2023/05/13 03:45:31;;;;;;;23.97;17.27;;;;;;;;;;5049437;28;20029;-57
2023/05/13 03:47:57;;;;;;;23.53;16.13;;;;;;;;;;5050284;28;20100;-57
2023/05/13 03:50:22;;;;;;;22.83;16.37;;;;;;;;;;5048464;28;20165;-57
2023/05/13 03:52:47;;;;;;;23.97;15.60;;;;;;;;;;5050632;28;20370;-57
2023/05/13 03:55:13;;;;;;;19.77;14.90;;;;;;;;;;5050906;28;20032;-57
2023/05/13 03:57:40;;;;;;;21.47;13.20;;;;;;;;;;5049309;28;20029;-57
2023/05/13 04:00:06;;;;;;;17.00;12.87;;;;;;;;;;5050956;28;20032;-57
2023/05/13 04:02:31;;;;;;;18.73;13.17;;;;;;;;;;5050590;28;20128;-57
2023/05/13 04:04:56;;;;;;;18.50;13.40;;;;;;;;;;5050978;28;20489;-56
2023/05/13 04:07:22;;;;;;;21.27;14.57;;;;;;;;;;5049474;28;20029;-57
2023/05/13 04:09:47;;;;;;;21.77;15.07;;;;;;;;;;5050323;28;20813;-57
2023/05/13 04:12:13;;;;;;;21.00;14.13;;;;;;;;;;5051118;28;20021;-57
2023/05/13 04:14:39;;;;;;;21.40;13.57;;;;;;;;;;5053149;28;20226;-57
2023/05/13 04:17:04;;;;;;;23.37;14.57;;;;;;;;;;5052360;28;20033;-57
2023/05/13 04:19:29;;;;;;;18.83;14.17;;;;;;;;;;5049914;28;20033;-57
2023/05/13 04:21:55;;;;;;;18.77;13.57;;;;;;;;;;5053944;28;20025;-57
2023/05/13 04:24:20;;;;;;;18.60;11.90;;;;;;;;;;5053325;28;20082;-57
2023/05/13 04:26:45;;;;;;;15.47;11.30;;;;;;;;;;5050761;28;20025;-57
2023/05/13 04:29:11;;;;;;;15.33;9.87;;;;;;;;;;5053068;28;20482;-57
2023/05/13 04:31:36;;;;;;;17.80;9.80;;;;;;;;;;5054019;28;20028;-57
2023/05/13 04:34:01;;;;;;;16.83;8.67;;;;;;;;;;5054390;28;20009;-57
2023/05/13 04:36:27;;;;;;;14.67;8.43;;;;;;;;;;5053209;28;20461;-57
2023/05/13 04:38:54;;;;;;;13.73;9.33;;;;;;;;;;5048528;28;20480;-57
2023/05/13 04:41:20;;;;;;;14.87;10.63;;;;;;;;;;5054430;28;20021;-58
2023/05/13 04:43:45;;;;;;;13.73;8.90;;;;;;;;;;5048989;28;20141;-58
2023/05/13 04:46:10;;;;;;;19.13;9.80;;;;;;;;;;5051170;28;20057;-57
2023/05/13 04:48:36;;;;;;;16.10;11.17;;;;;;;;;;5048158;28;20104;-57
2023/05/13 04:51:01;;;;;;;14.97;8.17;;;;;;;;;;5051718;28;20033;-57
2023/05/13 04:53:26;;;;;;;19.73;10.63;;;;;;;;;;5051739;28;20025;-57
2023/05/13 04:55:56;;;;;;;12.70;8.25;;;;;;;;;;5051734;28;20108;-57
2023/05/13 04:58:21;;;;;;;16.67;8.43;;;;;;;;;;5046799;28;20028;-58
2023/05/13 05:00:46;;;;;;;13.00;8.02;;;;;;;;;;5050280;28;20104;-58
2023/05/13 05:03:11;;;;;;;13.90;7.40;;;;;;;;;;5051634;28;20431;-57
2023/05/13 05:05:37;;;;;;;15.13;7.50;;;;;;;;;;5052055;28;20563;-58
2023/05/13 05:08:02;;;;;;;11.55;7.18;;;;;;;;;;5054327;28;20025;-57
2023/05/13 05:10:27;;;;;;;13.15;7.20;;;;;;;;;;5052333;28;20484;-57
2023/05/13 05:12:53;;;;;;;10.02;6.72;;;;;;;;;;5051470;28;20423;-58
2023/05/13 05:15:18;;;;;;;12.00;6.65;;;;;;;;;;5051665;28;20032;-57
2023/05/13 05:17:44;;;;;;;11.63;6.68;;;;;;;;;;5052494;28;20096;-57
2023/05/13 05:20:10;;;;;;;10.35;6.57;;;;;;;;;;5050300;28;20079;-57
2023/05/13 05:22:40;;;;;;;14.65;6.72;;;;;;;;;;5054516;28;20052;-57
2023/05/13 05:25:06;;;;;;;11.07;6.13;;;;;;;;;;5054146;28;20025;-58
2023/05/13 05:27:31;;;;;;;9.88;6.50;;;;;;;;;;5059895;28;20078;-57
2023/05/13 05:29:56;;;;;;;11.35;6.20;;;;;;;;;;5053156;28;20013;-58
2023/05/13 05:32:22;;;;;;;9.55;5.82;;;;;;;;;;5054735;28;20028;-58
2023/05/13 05:34:47;;;;;;;10.05;5.78;;;;;;;;;;5050951;28;20031;-58
2023/05/13 05:37:12;;;;;;;83.72;10.15;;;;;;;;;;5053137;28;20473;-58
2023/05/13 05:39:39;;;;;;;10.63;6.20;;;;;;;;;;5054489;28;20449;-58
2023/05/13 05:42:05;;;;;;;10.43;5.78;;;;;;;;;;5052478;28;20025;-58
2023/05/13 05:44:30;;;;;;;12.85;5.53;;;;;;;;;;5052832;28;20032;-58
2023/05/13 05:46:56;;;;;;;10.25;5.60;;;;;;;;;;5050470;28;20465;-58
2023/05/13 05:49:21;;;;;;;17.30;6.55;;;;;;;;;;5052359;28;20033;-58
2023/05/13 05:51:46;;;;;;;15.93;5.80;;;;;;;;;;5052245;28;20017;-58
2023/05/13 05:54:11;;;;;;;12.73;6.15;;;;;;;;;;5053994;28;20021;-57
2023/05/13 05:56:37;;;;;;;9.25;5.60;;;;;;;;;;5052073;28;20427;-58
2023/05/13 05:59:02;;;;;;;10.02;5.85;;;;;;;;;;5053414;28;20039;-57
2023/05/13 06:01:32;;;;;;;11.98;5.75;;;;;;;;;;5053194;28;20114;-58
2023/05/13 06:03:57;;;;;;;25.52;6.50;;;;;;;;;;5052733;28;20079;-57
2023/05/13 06:06:23;;;;;;;144.88;12.57;;;;;;;;;;5051325;28;20037;-57
2023/05/13 06:08:48;;;;;;;17.40;6.18;;;;;;;;;;5052798;28;20481;-57
2023/05/13 06:11:13;;;;;;;154.00;15.48;;;;;;;;;;5048683;28;20039;-58
2023/05/13 06:13:39;;;;;;;7.55;5.38;;;;;;;;;;5046529;28;20025;-57
2023/05/13 06:16:04;;;;;;;9.10;5.30;;;;;;;;;;5049107;28;20046;-58
2023/05/13 06:18:29;;;;;;;31.23;6.65;;;;;;;;;;5048941;28;20385;-57
2023/05/13 06:20:55;;;;;;;12.00;5.30;;;;;;;;;;5049675;28;20030;-58
2023/05/13 06:23:20;;;;;;;8.55;5.22;;;;;;;;;;5049989;28;20116;-58
2023/05/13 06:25:46;;;;;;;91.13;9.18;;;;;;;;;;5052593;28;20029;-57
2023/05/13 06:28:11;;;;;;;7.57;4.75;;;;;;;;;;5050118;28;20025;-57
2023/05/13 06:30:37;;;;;;;316.50;17.80;;;;;;;;;;5050533;28;20066;-57
2023/05/13 06:33:02;;;;;;;8.27;4.97;;;;;;;;;;5049752;28;20040;-58
2023/05/13 06:35:28;;;;;;;13.88;5.03;;;;;;;;;;5050111;28;20489;-57
2023/05/13 06:37:53;;;;;;;8.60;5.25;;;;;;;;;;5053072;28;20024;-59
2023/05/13 06:40:18;;;;;;;9.80;4.97;;;;;;;;;;5051468;28;20032;-58
2023/05/13 06:42:43;;;;;;;10.30;4.72;;;;;;;;;;5050630;28;20024;-57
2023/05/13 06:45:09;;;;;;;14.80;5.05;;;;;;;;;;5052203;28;20024;-58
2023/05/13 06:47:34;;;;;;;8.90;4.88;;;;;;;;;;5048588;28;20368;-58
2023/05/13 06:50:00;;;;;;;9.30;4.90;;;;;;;;;;5050704;28;20381;-58
2023/05/13 06:52:25;;;;;;;10.27;4.70;;;;;;;;;;5048254;28;20052;-58
2023/05/13 06:54:50;;;;;;;11.07;5.68;;;;;;;;;;5047901;28;20664;-58
2023/05/13 06:57:16;;;;;;;9.02;5.50;;;;;;;;;;5047318;28;20029;-58
2023/05/13 06:59:41;;;;;;;8.38;4.88;;;;;;;;;;5048601;28;20017;-58
2023/05/13 07:02:08;;;;;;;9.15;5.05;;;;;;;;;;5045777;28;20021;-58
2023/05/13 07:04:34;;;;;;;8.30;4.53;;;;;;;;;;5044362;28;20457;-58
2023/05/13 07:06:59;;;;;;;7.95;4.65;;;;;;;;;;5047185;28;20165;-58
2023/05/13 07:09:24;;;;;;;8.23;4.63;;;;;;;;;;5044872;28;20017;-58
2023/05/13 07:11:50;;;;;;;11.38;5.13;;;;;;;;;;5050630;28;20021;-58
2023/05/13 07:14:15;;;;;;;11.02;4.65;;;;;;;;;;5050224;28;20071;-58
2023/05/13 07:16:40;;;;;;;7.70;4.47;;;;;;;;;;5050756;28;20021;-58
2023/05/13 07:19:06;;;;;;;9.95;4.50;;;;;;;;;;5050886;28;20025;-58
2023/05/13 07:21:31;;;;;;;7.18;4.53;;;;;;;;;;5048986;28;20025;-58
2023/05/13 07:23:56;;;;;;;7.57;4.15;;;;;;;;;;5049983;28;20036;-57
2023/05/13 07:26:22;;;;;;;9.68;4.80;;;;;;;;;;5052743;28;20021;-58
2023/05/13 07:28:47;;;;;;;7.63;4.68;;;;;;;;;;5051830;28;20021;-57
2023/05/13 07:31:12;;;;;;;6.93;4.15;;;;;;;;;;5048334;28;20028;-57
2023/05/13 07:33:38;;;;;;;7.93;4.63;;;;;;;;;;5047504;28;20094;-58
2023/05/13 07:36:04;;;;;;;12.35;8.27;;;;;;;;;;5051213;28;20028;-58
2023/05/13 07:38:29;;;;;;;8.07;4.30;;;;;;;;;;5038571;28;20021;-58
2023/05/13 07:40:55;;;;;;;12.57;4.88;;;;;;;;;;5046592;28;20477;-58
2023/05/13 07:43:22;;;;;;;7.72;4.13;;;;;;;;;;5050709;28;20017;-58
2023/05/13 07:45:50;;;;;;;13.07;5.45;;;;;;;;;;5055932;28;20029;-58
2023/05/13 07:48:16;;;;;;;9.25;5.75;;;;;;;;;;5050162;28;20035;-57
2023/05/13 07:50:42;;;;;;;8.18;4.20;;;;;;;;;;5052051;28;20021;-57
2023/05/13 07:53:07;;;;;;;8.05;4.32;;;;;;;;;;5055614;28;20017;-57
2023/05/13 07:55:32;;;;;;;20.40;5.15;;;;;;;;;;5055430;28;20092;-57
2023/05/13 07:57:58;;;;;;;11.23;4.47;;;;;;;;;;5055096;28;20021;-58
2023/05/13 08:00:23;;;;;;;11.00;4.18;;;;;;;;;;5054529;28;20020;-57
2023/05/13 08:02:49;;;;;;;70.00;10.25;;;;;;;;;;5053592;28;20041;-57
2023/05/13 08:05:14;;;;;;;19.30;4.63;;;;;;;;;;5052602;28;20024;-58
2023/05/13 08:07:39;;;;;;;7.85;4.10;;;;;;;;;;5051250;28;20032;-58
2023/05/13 08:10:05;;;;;;;11.38;4.20;;;;;;;;;;5054226;28;20017;-59
2023/05/13 08:12:30;;;;;;;8.10;3.95;;;;;;;;;;5050970;28;20108;-58
2023/05/13 08:14:55;;;;;;;10.52;3.53;;;;;;;;;;5053903;28;20027;-58
2023/05/13 08:17:21;;;;;;;8.35;3.40;;;;;;;;;;5051330;28;20018;-58
2023/05/13 08:19:46;;;;;;;10.35;3.63;;;;;;;;;;5054958;28;20021;-58
2023/05/13 08:22:12;;;;;;;10.50;3.53;;;;;;;;;;5053523;28;20515;-59
2023/05/13 08:24:39;;;;;;;5.85;3.00;;;;;;;;;;5054508;28;20021;-58
2023/05/13 08:27:05;;;;;;;22.98;4.03;;;;;;;;;;5051670;28;20457;-58
2023/05/13 08:29:30;;;;;;;7.03;3.90;;;;;;;;;;5055577;28;20024;-58
2023/05/13 08:31:55;;;;;;;8.07;3.63;;;;;;;;;;5048967;28;20025;-58
2023/05/13 08:34:21;;;;;;;10.65;4.00;;;;;;;;;;5055393;28;20032;-57
2023/05/13 08:36:46;;;;;;;7.40;4.05;;;;;;;;;;5051427;28;20053;-57
2023/05/13 08:39:12;;;;;;;6.65;4.25;;;;;;;;;;5053981;28;20051;-57
2023/05/13 08:41:37;;;;;;;22.55;4.60;;;;;;;;;;5053213;28;20021;-57
2023/05/13 08:44:03;;;;;;;9.60;4.63;;;;;;;;;;5050397;28;20029;-57
2023/05/13 08:46:31;;;;;;;10.85;5.72;;;;;;;;;;5050587;28;20389;-57
2023/05/13 08:48:56;;;;;;;11.90;4.25;;;;;;;;;;5052403;28;20063;-57
2023/05/13 08:51:22;;;;;;;9.65;4.35;;;;;;;;;;5046745;28;20016;-58
2023/05/13 08:53:47;;;;;;;10.57;3.97;;;;;;;;;;5054223;28;20029;-58
2023/05/13 08:56:13;;;;;;;9.82;3.53;;;;;;;;;;5053082;28;20465;-58
2023/05/13 08:58:38;;;;;;;9.93;3.60;;;;;;;;;;5054567;28;20473;-58
2023/05/13 09:01:04;;;;;;;10.25;4.10;;;;;;;;;;5053518;28;20488;-57
2023/05/13 09:03:30;;;;;;;9.23;3.58;;;;;;;;;;5053061;28;20540;-58
2023/05/13 09:05:55;;;;;;;14.68;4.40;;;;;;;;;;5054402;28;20120;-57
2023/05/13 09:08:20;;;;;;;9.98;3.53;;;;;;;;;;5049831;28;20465;-57
2023/05/13 09:10:46;;;;;;;7.60;3.80;;;;;;;;;;5044968;28;20111;-57
2023/05/13 09:13:12;;;;;;;8.02;3.78;;;;;;;;;;5053376;28;20056;-57
2023/05/13 09:15:40;;;;;;;6.97;3.67;;;;;;;;;;5055171;28;20025;-57
2023/05/13 09:18:06;;;;;;;7.88;3.65;;;;;;;;;;5051603;28;20501;-58
2023/05/13 09:20:31;;;;;;;8.48;3.90;;;;;;;;;;5051680;28;20482;-58
2023/05/13 09:22:58;;;;;;;10.77;3.50;;;;;;;;;;5052932;28;20079;-58
2023/05/13 09:25:24;;;;;;;8.73;3.25;;;;;;;;;;5054826;28;20035;-57
2023/05/13 09:27:56;;;;;;;8.63;3.45;;;;;;;;;;5054666;28;20084;-57
2023/05/13 09:30:22;;;;;;;22.55;4.05;;;;;;;;;;5054039;28;20029;-57
2023/05/13 09:33:03;;;;;;;8.70;3.45;;;;;;;;;;5054992;28;20100;-56
2023/05/13 09:35:30;;;;;;;9.05;3.47;;;;;;;;;;5052987;28;20559;-57
2023/05/13 09:37:55;;;;;;;8.15;3.28;;;;;;;;;;5054797;28;20607;-57
2023/05/13 09:40:20;;;;;;;7.72;3.13;;;;;;;;;;5053481;28;20013;-58
2023/05/13 09:42:46;;;;;;;7.72;3.03;;;;;;;;;;5050863;28;20377;-57
2023/05/13 09:45:12;;;;;;;12.85;4.03;;;;;;;;;;5054160;28;20032;-58
2023/05/13 09:47:38;;;;;;;8.27;3.03;;;;;;;;;;5053606;28;20052;-57
2023/05/13 09:50:04;;;;;;;5.97;2.65;;;;;;;;;;5053593;28;20009;-57
2023/05/13 09:52:30;;;;;;;6.72;3.17;;;;;;;;;;5052303;28;20019;-57
2023/05/13 09:54:58;;;;;;;7.90;3.00;;;;;;;;;;5052419;28;20468;-57
2023/05/13 09:57:27;;;;;;;13.23;3.10;;;;;;;;;;5052250;28;20445;-57
2023/05/13 09:59:56;;;;;;;6.90;2.97;;;;;;;;;;5054458;28;20025;-57
2023/05/13 10:02:22;;;;;;;8.93;2.85;;;;;;;;;;5052990;28;20037;-57
2023/05/13 10:04:47;;;;;;;7.03;2.90;;;;;;;;;;5053155;28;20028;-57
2023/05/13 10:07:13;;;;;;;7.20;2.97;;;;;;;;;;5052205;28;20025;-57
2023/05/13 10:09:41;;;;;;;10.07;3.22;;;;;;;;;;5052555;28;20045;-57
2023/05/13 10:12:07;;;;;;;5.88;3.00;;;;;;;;;;5053389;28;20029;-56
2023/05/13 10:14:33;;;;;;;7.45;2.67;;;;;;;;;;5053523;28;20105;-59
2023/05/13 10:16:59;;;;;;;10.20;2.88;;;;;;;;;;5051197;28;20104;-60
2023/05/13 10:19:25;;;;;;;10.63;3.20;;;;;;;;;;5051827;28;20504;-57
2023/05/13 10:21:51;;;;;;;5.72;2.70;;;;;;;;;;5049751;28;20472;-58
2023/05/13 10:24:17;;;;;;;6.90;2.80;;;;;;;;;;5049559;28;20028;-57
2023/05/13 10:26:42;;;;;;;6.05;2.67;;;;;;;;;;5052330;28;20389;-57
2023/05/13 10:29:09;;;;;;;6.80;2.50;;;;;;;;;;5053580;28;20020;-57
2023/05/13 10:31:34;;;;;;;5.95;2.60;;;;;;;;;;5053026;28;20521;-57
2023/05/13 10:34:00;;;;;;;9.05;2.67;;;;;;;;;;5052806;28;20028;-57
2023/05/13 10:36:47;;;;;;;5.05;2.50;;;;;;;;;;5043807;28;20025;-57
2023/05/13 10:39:36;;;;;;;8.02;2.78;;;;;;;;;;5051679;28;20029;-57
2023/05/13 10:42:21;;;;;;;6.72;2.58;;;;;;;;;;5018706;28;20037;-57
2023/05/13 10:44:50;;;;;;;5.57;2.60;;;;;;;;;;5044884;28;20397;-57
2023/05/13 10:47:16;;;;;;;7.00;3.00;;;;;;;;;;5051321;28;20032;-57
2023/05/13 10:49:48;;;;;;;12.77;3.15;;;;;;;;;;5050324;28;21248;-57
2023/05/13 10:52:14;;;;;;;5.63;3.00;;;;;;;;;;5050643;28;20052;-57
2023/05/13 10:54:40;;;;;;;5.65;2.70;;;;;;;;;;5049961;28;20485;-57
2023/05/13 10:57:06;;;;;;;6.85;2.97;;;;;;;;;;5050580;28;20032;-57
2023/05/13 10:59:33;;;;;;;8.43;2.80;;;;;;;;;;5050608;28;20384;-57
2023/05/13 11:02:18;;;;;;;6.63;2.75;;;;;;;;;;5048204;28;20024;-57
2023/05/13 11:04:57;;;;;;;7.93;2.85;;;;;;;;;;5049391;28;20044;-57
2023/05/13 11:07:22;;;;;;;13.98;2.78;;;;;;;;;;5044835;28;20021;-57
2023/05/13 11:09:48;;;;;;;5.20;2.55;;;;;;;;;;5051987;28;20396;-58
2023/05/13 11:12:14;;;;;;;9.13;2.95;;;;;;;;;;5049496;28;20013;-57
2023/05/13 11:14:41;;;;;;;5.85;2.97;;;;;;;;;;5052962;28;20024;-57
2023/05/13 11:17:08;;;;;;;7.32;2.65;;;;;;;;;;5050470;28;20100;-57
2023/05/13 11:19:34;;;;;;;6.63;2.25;;;;;;;;;;5049012;28;20358;-57
2023/05/13 11:22:09;;;;;;;7.15;2.67;;;;;;;;;;5048383;28;20032;-57
2023/05/13 11:24:35;;;;;;;4.68;2.60;;;;;;;;;;5050453;28;20020;-57
2023/05/13 11:27:11;;;;;;;8.60;3.00;;;;;;;;;;5051108;28;20021;-57
2023/05/13 11:29:37;;;;;;;7.50;3.03;;;;;;;;;;5046493;28;20026;-57
2023/05/13 11:32:03;;;;;;;4.78;2.70;;;;;;;;;;5046010;28;20021;-57
2023/05/13 11:34:29;;;;;;;7.78;2.80;;;;;;;;;;5051326;28;20591;-57
2023/05/13 11:36:56;;;;;;;8.82;3.47;;;;;;;;;;5052436;28;20029;-57
2023/05/13 11:39:22;;;;;;;5.28;2.63;;;;;;;;;;5043103;28;20036;-57
2023/05/13 11:41:49;;;;;;;5.78;3.17;;;;;;;;;;5046465;28;20449;-57
2023/05/13 11:44:16;;;;;;;7.03;2.85;;;;;;;;;;5050656;28;20021;-57
2023/05/13 11:47:07;;;;;;;5.00;2.30;;;;;;;;;;5050910;28;20429;-57
2023/05/13 11:49:33;;;;;;;;;;;;;;;;;;5044066;28;20052;-58
2023/05/13 11:51:59;;;;;;;5.93;2.90;;;;;;;;;;5046109;28;19908;-58
2023/05/13 11:54:24;;;;;;;5.03;2.47;;;;;;;;;;5052530;28;20739;-58
2023/05/13 11:56:49;;;;;;;6.63;2.67;;;;;;;;;;5050014;28;20028;-58
2023/05/13 11:59:15;;;;;;;4.63;2.20;;;;;;;;;;5048495;28;20098;-58
2023/05/13 12:01:40;;;;;;;6.40;2.53;;;;;;;;;;5050772;28;20373;-58
2023/05/13 12:04:06;;;;;;;5.35;2.55;;;;;;;;;;5049888;28;20076;-58
2023/05/13 12:06:32;;;;;;;5.20;2.70;;;;;;;;;;5048206;28;20021;-58
2023/05/13 12:09:03;;;;;;;7.05;2.53;;;;;;;;;;5050275;28;20036;-58
2023/05/13 12:11:29;;;;;;;6.10;2.60;;;;;;;;;;5050202;28;20029;-57
2023/05/13 12:13:54;;;;;;;6.40;2.97;;;;;;;;;;5047434;28;20088;-57
2023/05/13 12:16:20;;;;;;;4.78;2.70;;;;;;;;;;5048011;28;20469;-58
2023/05/13 12:18:55;;;;;;;8.65;2.63;;;;;;;;;;5049038;28;20037;-58
2023/05/13 12:21:20;;;;;;;6.05;2.58;;;;;;;;;;5045170;28;20103;-58
2023/05/13 12:23:45;;;;;;;4.20;2.58;;;;;;;;;;5052097;28;20067;-57
2023/05/13 12:26:11;;;;;;;7.18;2.80;;;;;;;;;;5050863;28;20435;-57
2023/05/13 12:28:36;;;;;;;6.35;2.63;;;;;;;;;;5049915;28;20017;-58
2023/05/13 12:31:03;;;;;;;8.57;3.20;;;;;;;;;;5053132;28;20036;-57
2023/05/13 12:33:32;;;;;;;10.15;2.80;;;;;;;;;;5055035;28;20009;-57
2023/05/13 12:36:17;;;;;;;7.05;3.30;;;;;;;;;;5049941;28;20477;-57
2023/05/13 12:39:15;;;;;;;8.23;2.90;;;;;;;;;;5053948;28;20484;-57
2023/05/13 12:41:41;;;;;;;6.07;2.65;;;;;;;;;;5019283;28;20469;-58
2023/05/13 12:44:09;;;;;;;8.20;2.30;;;;;;;;;;5056023;28;20033;-59
2023/05/13 12:46:35;;;;;;;5.68;2.75;;;;;;;;;;5053635;28;20028;-58
2023/05/13 12:49:01;;;;;;;5.07;2.40;;;;;;;;;;5053676;28;20017;-57
2023/05/13 12:51:28;;;;;;;4.45;2.40;;;;;;;;;;5051395;28;20511;-57
2023/05/13 12:53:54;;;;;;;4.32;2.08;;;;;;;;;;5055332;28;20053;-57
2023/05/13 12:56:23;;;;;;;4.53;2.30;;;;;;;;;;5054832;28;20017;-57
2023/05/13 12:58:57;;;;;;;4.07;2.10;;;;;;;;;;5053280;28;20025;-57
2023/05/13 13:01:22;;;;;;;6.43;2.30;;;;;;;;;;5055230;28;20029;-57
2023/05/13 13:03:47;;;;;;;8.48;2.67;;;;;;;;;;5051461;28;20047;-58
2023/05/13 13:06:16;;;;;;;6.70;2.53;;;;;;;;;;5052417;28;20033;-58
2023/05/13 13:08:41;;;;;;;6.65;2.50;;;;;;;;;;5053740;28;20028;-58
2023/05/13 13:11:07;;;;;;;4.22;2.50;;;;;;;;;;5055346;28;20017;-57
2023/05/13 13:13:33;;;;;;;8.60;3.30;;;;;;;;;;5054363;28;20021;-57
2023/05/13 13:15:58;;;;;;;7.13;3.17;;;;;;;;;;5054155;28;20487;-57
2023/05/13 13:18:24;;;;;;;5.03;2.60;;;;;;;;;;5054134;28;20079;-57
2023/05/13 13:20:50;;;;;;;8.38;2.38;;;;;;;;;;5051828;28;20099;-58
2023/05/13 13:23:15;;;;;;;6.93;3.08;;;;;;;;;;5053128;28;20033;-58
2023/05/13 13:25:41;;;;;;;6.07;2.10;;;;;;;;;;5052882;28;20024;-57
2023/05/13 13:28:06;;;;;;;7.68;2.00;;;;;;;;;;5054659;28;20100;-57
2023/05/13 13:30:31;;;;;;;6.45;2.20;;;;;;;;;;5051107;28;20017;-57
2023/05/13 13:32:57;;;;;;;6.43;2.30;;;;;;;;;;5053577;28;20381;-57
2023/05/13 13:35:22;;;;;;;4.78;2.00;;;;;;;;;;5048463;28;20432;-57
2023/05/13 13:37:47;;;;;;;6.97;2.95;;;;;;;;;;5051761;28;20032;-58
2023/05/13 13:40:12;;;;;;;6.40;2.55;;;;;;;;;;5054863;28;20025;-57
2023/05/13 13:42:38;;;;;;;6.85;2.83;;;;;;;;;;5051619;28;20079;-56
2023/05/13 13:45:03;;;;;;;9.57;3.10;;;;;;;;;;5050129;28;20025;-57
2023/05/13 13:47:29;;;;;;;5.43;2.70;;;;;;;;;;5053590;28;20135;-57
2023/05/13 13:49:54;;;;;;;4.55;2.72;;;;;;;;;;5052029;28;20056;-57
2023/05/13 13:52:21;;;;;;;6.18;2.47;;;;;;;;;;5053183;28;20017;-57
2023/05/13 13:54:47;;;;;;;6.65;3.00;;;;;;;;;;5048248;28;20075;-57
2023/05/13 13:57:12;;;;;;;8.38;2.78;;;;;;;;;;5053328;28;20033;-58
2023/05/13 13:59:38;;;;;;;5.75;2.70;;;;;;;;;;5052707;28;20116;-58
2023/05/13 14:02:03;;;;;;;6.45;2.42;;;;;;;;;;5049865;28;20025;-58
2023/05/13 14:04:29;;;;;;;8.75;2.70;;;;;;;;;;5051382;28;20043;-57
2023/05/13 14:06:55;;;;;;;5.43;2.60;;;;;;;;;;5050469;28;20017;-58
2023/05/13 14:09:20;;;;;;;5.40;2.53;;;;;;;;;;5053762;28;20051;-58
2023/05/13 14:11:45;;;;;;;5.10;2.80;;;;;;;;;;5053181;28;20052;-58
2023/05/13 14:14:11;;;;;;;5.38;2.60;;;;;;;;;;5052258;28;20021;-57
2023/05/13 14:16:36;;;;;;;5.57;2.65;;;;;;;;;;5052081;28;20024;-57
2023/05/13 14:19:02;;;;;;;4.18;2.83;;;;;;;;;;5054028;28;20397;-58
2023/05/13 14:21:27;;;;;;;6.68;2.60;;;;;;;;;;5050214;28;20024;-58
2023/05/13 14:23:52;;;;;;;4.38;2.65;;;;;;;;;;5052559;28;20025;-58
2023/05/13 14:26:17;;;;;;;5.75;2.90;;;;;;;;;;5051705;28;20025;-58
2023/05/13 14:28:43;;;;;;;4.53;2.30;;;;;;;;;;5053637;28;20029;-57
2023/05/13 14:31:08;;;;;;;4.45;2.25;;;;;;;;;;5052933;28;20055;-57